sensor_id;sensor_type;location;lat;lon;timestamp;pressure;altitude;pressure_sealevel;temperature;humidity
58662;BME280;44432;49.786;22.760;2023-05-01T00:00:56;99777.86;;;3.49;82.60
58662;BME280;44432;49.786;22.760;2023-05-01T00:03:26;99775.83;;;3.46;82.44
58662;BME280;44432;49.786;22.760;2023-05-01T00:05:59;99777.44;;;3.44;82.47
58662;BME280;44432;49.786;22.760;2023-05-01T00:08:28;99775.77;;;3.42;82.69
58662;BME280;44432;49.786;22.760;2023-05-01T00:11:02;99780.61;;;3.41;82.80
58662;BME280;44432;49.786;22.760;2023-05-01T00:13:31;99779.43;;;3.38;83.02
58662;BME280;44432;49.786;22.760;2023-05-01T00:16:00;99784.47;;;3.37;82.82
58662;BME280;44432;49.786;22.760;2023-05-01T00:18:30;99782.52;;;3.34;82.87
58662;BME280;44432;49.786;22.760;2023-05-01T00:20:59;99785.88;;;3.32;82.88
58662;BME280;44432;49.786;22.760;2023-05-01T00:23:28;99788.80;;;3.28;83.08
58662;BME280;44432;49.786;22.760;2023-05-01T00:25:57;99788.70;;;3.24;82.91
58662;BME280;44432;49.786;22.760;2023-05-01T00:28:26;99788.59;;;3.21;83.08
58662;BME280;44432;49.786;22.760;2023-05-01T00:30:55;99788.91;;;3.18;82.92
58662;BME280;44432;49.786;22.760;2023-05-01T00:33:24;99791.23;;;3.14;83.02
58662;BME280;44432;49.786;22.760;2023-05-01T00:35:53;99797.30;;;3.10;82.84
58662;BME280;44432;49.786;22.760;2023-05-01T00:38:23;99803.10;;;3.06;83.00
58662;BME280;44432;49.786;22.760;2023-05-01T00:40:52;99801.02;;;3.02;83.20
58662;BME280;44432;49.786;22.760;2023-05-01T00:43:21;99803.39;;;2.96;83.39
58662;BME280;44432;49.786;22.760;2023-05-01T00:45:50;99807.14;;;2.93;83.33
58662;BME280;44432;49.786;22.760;2023-05-01T00:48:19;99807.17;;;2.89;83.50
58662;BME280;44432;49.786;22.760;2023-05-01T00:50:48;99808.16;;;2.82;83.39
58662;BME280;44432;49.786;22.760;2023-05-01T00:53:17;99808.43;;;2.80;83.22
58662;BME280;44432;49.786;22.760;2023-05-01T00:55:47;99812.24;;;2.76;83.45
58662;BME280;44432;49.786;22.760;2023-05-01T00:58:16;99819.77;;;2.72;83.68
58662;BME280;44432;49.786;22.760;2023-05-01T01:00:46;99822.82;;;2.68;83.62
58662;BME280;44432;49.786;22.760;2023-05-01T01:03:15;99823.42;;;2.63;83.98
58662;BME280;44432;49.786;22.760;2023-05-01T01:05:45;99827.15;;;2.60;83.94
58662;BME280;44432;49.786;22.760;2023-05-01T01:08:18;99828.45;;;2.58;83.86
58662;BME280;44432;49.786;22.760;2023-05-01T01:10:50;99831.52;;;2.55;83.87
58662;BME280;44432;49.786;22.760;2023-05-01T01:13:24;99832.10;;;2.51;84.29
58662;BME280;44432;49.786;22.760;2023-05-01T01:15:58;99832.27;;;2.49;84.32
58662;BME280;44432;49.786;22.760;2023-05-01T01:18:31;99829.84;;;2.47;83.96
58662;BME280;44432;49.786;22.760;2023-05-01T01:21:02;99833.53;;;2.45;84.23
58662;BME280;44432;49.786;22.760;2023-05-01T01:26:25;99833.86;;;2.36;84.12
58662;BME280;44432;49.786;22.760;2023-05-01T01:29:01;99832.30;;;2.31;84.22
58662;BME280;44432;49.786;22.760;2023-05-01T01:31:33;99840.89;;;2.29;84.21
58662;BME280;44432;49.786;22.760;2023-05-01T01:34:08;99842.38;;;2.28;84.37
58662;BME280;44432;49.786;22.760;2023-05-01T01:36:41;99841.29;;;2.27;84.43
58662;BME280;44432;49.786;22.760;2023-05-01T01:39:13;99845.13;;;2.27;84.44
58662;BME280;44432;49.786;22.760;2023-05-01T01:41:46;99844.50;;;2.26;84.81
58662;BME280;44432;49.786;22.760;2023-05-01T01:44:18;99842.61;;;2.26;84.66
58662;BME280;44432;49.786;22.760;2023-05-01T01:46:48;99847.22;;;2.25;84.65
58662;BME280;44432;49.786;22.760;2023-05-01T01:49:20;99846.01;;;2.23;84.60
58662;BME280;44432;49.786;22.760;2023-05-01T01:51:51;99844.47;;;2.21;84.46
58662;BME280;44432;49.786;22.760;2023-05-01T01:54:22;99846.38;;;2.19;84.42
58662;BME280;44432;49.786;22.760;2023-05-01T01:56:53;99846.70;;;2.18;84.21
58662;BME280;44432;49.786;22.760;2023-05-01T01:59:23;99848.28;;;2.16;84.57
58662;BME280;44432;49.786;22.760;2023-05-01T02:01:54;99852.79;;;2.14;84.57
58662;BME280;44432;49.786;22.760;2023-05-01T02:04:24;99849.48;;;2.11;84.62
58662;BME280;44432;49.786;22.760;2023-05-01T02:06:53;99853.37;;;2.08;84.24
58662;BME280;44432;49.786;22.760;2023-05-01T02:09:23;99854.67;;;2.04;84.45
58662;BME280;44432;49.786;22.760;2023-05-01T02:11:54;99858.34;;;2.00;84.36
58662;BME280;44432;49.786;22.760;2023-05-01T02:14:25;99857.36;;;1.97;84.47
58662;BME280;44432;49.786;22.760;2023-05-01T02:16:54;99859.65;;;1.93;84.42
58662;BME280;44432;49.786;22.760;2023-05-01T02:19:25;99858.67;;;1.91;84.48
58662;BME280;44432;49.786;22.760;2023-05-01T02:21:55;99857.86;;;1.88;84.60
58662;BME280;44432;49.786;22.760;2023-05-01T02:24:25;99863.13;;;1.86;84.66
58662;BME280;44432;49.786;22.760;2023-05-01T02:26:57;99863.30;;;1.84;84.81
58662;BME280;44432;49.786;22.760;2023-05-01T02:29:28;99864.56;;;1.81;84.82
58662;BME280;44432;49.786;22.760;2023-05-01T02:31:57;99864.80;;;1.77;84.70
58662;BME280;44432;49.786;22.760;2023-05-01T02:34:27;99865.30;;;1.74;84.77
58662;BME280;44432;49.786;22.760;2023-05-01T02:36:56;99862.30;;;1.70;84.94
58662;BME280;44432;49.786;22.760;2023-05-01T02:39:25;99864.52;;;1.69;85.04
58662;BME280;44432;49.786;22.760;2023-05-01T02:41:54;99862.73;;;1.68;85.10
58662;BME280;44432;49.786;22.760;2023-05-01T02:44:26;99862.34;;;1.64;85.24
58662;BME280;44432;49.786;22.760;2023-05-01T02:46:55;99865.98;;;1.64;85.09
58662;BME280;44432;49.786;22.760;2023-05-01T02:49:25;99868.04;;;1.63;85.03
58662;BME280;44432;49.786;22.760;2023-05-01T02:51:54;99867.71;;;1.60;84.90
58662;BME280;44432;49.786;22.760;2023-05-01T02:54:24;99863.34;;;1.57;84.91
58662;BME280;44432;49.786;22.760;2023-05-01T02:56:53;99869.05;;;1.56;85.10
58662;BME280;44432;49.786;22.760;2023-05-01T02:59:24;99869.87;;;1.54;85.21
58662;BME280;44432;49.786;22.760;2023-05-01T03:01:54;99870.88;;;1.53;85.13
58662;BME280;44432;49.786;22.760;2023-05-01T03:04:23;99872.91;;;1.51;85.13
58662;BME280;44432;49.786;22.760;2023-05-01T03:06:52;99876.06;;;1.51;85.21
58662;BME280;44432;49.786;22.760;2023-05-01T03:09:21;99881.27;;;1.51;85.05
58662;BME280;44432;49.786;22.760;2023-05-01T03:11:50;99884.27;;;1.50;85.25
58662;BME280;44432;49.786;22.760;2023-05-01T03:14:20;99886.01;;;1.50;85.20
58662;BME280;44432;49.786;22.760;2023-05-01T03:16:49;99893.02;;;1.49;85.20
58662;BME280;44432;49.786;22.760;2023-05-01T03:19:18;99897.45;;;1.48;85.31
58662;BME280;44432;49.786;22.760;2023-05-01T03:21:47;99898.69;;;1.48;85.26
58662;BME280;44432;49.786;22.760;2023-05-01T03:24:16;99898.96;;;1.47;85.20
58662;BME280;44432;49.786;22.760;2023-05-01T03:26:45;99895.35;;;1.47;85.23
58662;BME280;44432;49.786;22.760;2023-05-01T03:29:14;99897.02;;;1.45;85.20
58662;BME280;44432;49.786;22.760;2023-05-01T03:31:43;99889.55;;;1.44;85.23
58662;BME280;44432;49.786;22.760;2023-05-01T03:34:12;99891.33;;;1.44;85.16
58662;BME280;44432;49.786;22.760;2023-05-01T03:36:41;99891.30;;;1.42;85.11
58662;BME280;44432;49.786;22.760;2023-05-01T03:39:10;99884.49;;;1.41;85.30
58662;BME280;44432;49.786;22.760;2023-05-01T03:41:39;99885.69;;;1.41;85.48
58662;BME280;44432;49.786;22.760;2023-05-01T03:44:08;99888.73;;;1.41;85.43
58662;BME280;44432;49.786;22.760;2023-05-01T03:46:37;99889.58;;;1.43;85.51
58662;BME280;44432;49.786;22.760;2023-05-01T03:49:06;99887.77;;;1.45;85.53
58662;BME280;44432;49.786;22.760;2023-05-01T03:51:35;99892.40;;;1.47;85.32
58662;BME280;44432;49.786;22.760;2023-05-01T03:54:04;99894.41;;;1.49;85.50
58662;BME280;44432;49.786;22.760;2023-05-01T03:56:34;99895.84;;;1.53;85.48
58662;BME280;44432;49.786;22.760;2023-05-01T03:59:03;99898.02;;;1.57;85.47
58662;BME280;44432;49.786;22.760;2023-05-01T04:01:32;99898.92;;;1.61;85.56
58662;BME280;44432;49.786;22.760;2023-05-01T04:04:01;99904.17;;;1.64;85.40
58662;BME280;44432;49.786;22.760;2023-05-01T04:06:31;99905.30;;;1.67;85.35
58662;BME280;44432;49.786;22.760;2023-05-01T04:09:00;99904.64;;;1.71;85.11
58662;BME280;44432;49.786;22.760;2023-05-01T04:11:29;99904.87;;;1.74;85.35
58662;BME280;44432;49.786;22.760;2023-05-01T04:13:58;99899.21;;;1.77;85.09
58662;BME280;44432;49.786;22.760;2023-05-01T04:16:27;99901.13;;;1.80;84.95
58662;BME280;44432;49.786;22.760;2023-05-01T04:18:56;99904.73;;;1.84;84.99
58662;BME280;44432;49.786;22.760;2023-05-01T04:21:25;99904.02;;;1.86;85.09
58662;BME280;44432;49.786;22.760;2023-05-01T04:23:54;99906.77;;;1.90;84.80
58662;BME280;44432;49.786;22.760;2023-05-01T04:26:23;99909.14;;;1.95;85.06
58662;BME280;44432;49.786;22.760;2023-05-01T04:28:53;99908.33;;;2.00;85.12
58662;BME280;44432;49.786;22.760;2023-05-01T04:31:22;99909.44;;;2.05;85.02
58662;BME280;44432;49.786;22.760;2023-05-01T04:33:51;99909.86;;;2.09;84.96
58662;BME280;44432;49.786;22.760;2023-05-01T04:36:20;99908.75;;;2.14;85.04
58662;BME280;44432;49.786;22.760;2023-05-01T04:38:49;99909.20;;;2.18;84.90
58662;BME280;44432;49.786;22.760;2023-05-01T04:41:18;99908.97;;;2.21;85.04
58662;BME280;44432;49.786;22.760;2023-05-01T04:43:48;99908.05;;;2.25;84.66
58662;BME280;44432;49.786;22.760;2023-05-01T04:46:17;99908.58;;;2.28;84.64
58662;BME280;44432;49.786;22.760;2023-05-01T04:48:46;99910.29;;;2.33;84.86
58662;BME280;44432;49.786;22.760;2023-05-01T04:51:15;99909.48;;;2.38;85.07
58662;BME280;44432;49.786;22.760;2023-05-01T04:53:44;99906.18;;;2.43;84.79
58662;BME280;44432;49.786;22.760;2023-05-01T04:56:13;99907.97;;;2.48;84.81
58662;BME280;44432;49.786;22.760;2023-05-01T04:58:42;99907.65;;;2.56;84.88
58662;BME280;44432;49.786;22.760;2023-05-01T05:01:11;99910.27;;;2.64;84.69
58662;BME280;44432;49.786;22.760;2023-05-01T05:03:40;99912.28;;;2.72;84.87
58662;BME280;44432;49.786;22.760;2023-05-01T05:06:09;99912.27;;;2.81;85.00
58662;BME280;44432;49.786;22.760;2023-05-01T05:08:38;99915.77;;;2.89;84.70
58662;BME280;44432;49.786;22.760;2023-05-01T05:11:07;99917.06;;;3.00;84.48
58662;BME280;44432;49.786;22.760;2023-05-01T05:13:36;99917.65;;;3.10;84.50
58662;BME280;44432;49.786;22.760;2023-05-01T05:16:06;99921.31;;;3.20;84.56
58662;BME280;44432;49.786;22.760;2023-05-01T05:18:35;99921.05;;;3.31;84.85
58662;BME280;44432;49.786;22.760;2023-05-01T05:21:04;99922.66;;;3.43;84.69
58662;BME280;44432;49.786;22.760;2023-05-01T05:23:34;99922.79;;;3.56;84.44
58662;BME280;44432;49.786;22.760;2023-05-01T05:26:03;99917.88;;;3.67;83.93
58662;BME280;44432;49.786;22.760;2023-05-01T05:28:33;99920.52;;;3.79;83.99
58662;BME280;44432;49.786;22.760;2023-05-01T05:31:02;99919.20;;;3.88;83.58
58662;BME280;44432;49.786;22.760;2023-05-01T05:33:31;99916.82;;;3.98;83.54
58662;BME280;44432;49.786;22.760;2023-05-01T05:36:00;99921.64;;;4.09;83.42
58662;BME280;44432;49.786;22.760;2023-05-01T05:38:29;99916.48;;;4.20;83.37
58662;BME280;44432;49.786;22.760;2023-05-01T05:40:58;99916.20;;;4.30;83.01
58662;BME280;44432;49.786;22.760;2023-05-01T05:43:28;99915.89;;;4.41;82.92
58662;BME280;44432;49.786;22.760;2023-05-01T05:45:57;99919.63;;;4.52;82.94
58662;BME280;44432;49.786;22.760;2023-05-01T05:48:26;99913.65;;;4.61;82.78
58662;BME280;44432;49.786;22.760;2023-05-01T05:50:55;99918.11;;;4.75;82.78
58662;BME280;44432;49.786;22.760;2023-05-01T05:53:25;99920.98;;;4.87;82.64
58662;BME280;44432;49.786;22.760;2023-05-01T05:55:54;99921.38;;;4.99;82.58
58662;BME280;44432;49.786;22.760;2023-05-01T05:58:23;99919.13;;;5.10;82.44
58662;BME280;44432;49.786;22.760;2023-05-01T06:00:52;99919.62;;;5.23;82.24
58662;BME280;44432;49.786;22.760;2023-05-01T06:03:22;99919.00;;;5.36;82.14
58662;BME280;44432;49.786;22.760;2023-05-01T06:05:51;99918.96;;;5.49;82.10
58662;BME280;44432;49.786;22.760;2023-05-01T06:08:20;99914.78;;;5.60;82.04
58662;BME280;44432;49.786;22.760;2023-05-01T06:10:49;99919.19;;;5.76;81.91
58662;BME280;44432;49.786;22.760;2023-05-01T06:13:19;99916.98;;;5.90;81.67
58662;BME280;44432;49.786;22.760;2023-05-01T06:15:48;99915.20;;;6.03;80.71
58662;BME280;44432;49.786;22.760;2023-05-01T06:18:17;99918.74;;;6.17;80.03
58662;BME280;44432;49.786;22.760;2023-05-01T06:20:46;99915.16;;;6.32;79.19
58662;BME280;44432;49.786;22.760;2023-05-01T06:23:15;99912.58;;;6.49;78.29
58662;BME280;44432;49.786;22.760;2023-05-01T06:25:44;99908.17;;;6.65;78.03
58662;BME280;44432;49.786;22.760;2023-05-01T06:28:15;99907.86;;;6.82;77.35
58662;BME280;44432;49.786;22.760;2023-05-01T06:30:45;99904.09;;;7.02;76.17
58662;BME280;44432;49.786;22.760;2023-05-01T06:33:14;99911.95;;;7.24;75.21
58662;BME280;44432;49.786;22.760;2023-05-01T06:35:43;99906.88;;;7.45;74.24
58662;BME280;44432;49.786;22.760;2023-05-01T06:38:12;99903.20;;;7.68;73.26
58662;BME280;44432;49.786;22.760;2023-05-01T06:40:41;99907.42;;;7.87;71.93
58662;BME280;44432;49.786;22.760;2023-05-01T06:43:13;99901.10;;;8.03;71.38
58662;BME280;44432;49.786;22.760;2023-05-01T06:45:43;99902.27;;;8.17;70.87
58662;BME280;44432;49.786;22.760;2023-05-01T06:48:12;99905.67;;;8.30;70.29
58662;BME280;44432;49.786;22.760;2023-05-01T06:50:41;99909.15;;;8.41;69.74
58662;BME280;44432;49.786;22.760;2023-05-01T06:53:11;99904.69;;;8.52;69.10
58662;BME280;44432;49.786;22.760;2023-05-01T06:55:40;99903.34;;;8.62;68.79
58662;BME280;44432;49.786;22.760;2023-05-01T06:58:09;99906.04;;;8.75;67.97
58662;BME280;44432;49.786;22.760;2023-05-01T07:00:38;99902.63;;;8.84;67.36
58662;BME280;44432;49.786;22.760;2023-05-01T07:03:07;99906.21;;;8.94;66.79
58662;BME280;44432;49.786;22.760;2023-05-01T07:05:36;99905.15;;;9.01;66.16
58662;BME280;44432;49.786;22.760;2023-05-01T07:08:07;99899.23;;;9.07;65.71
58662;BME280;44432;49.786;22.760;2023-05-01T07:10:37;99902.86;;;9.15;65.61
58662;BME280;44432;49.786;22.760;2023-05-01T07:13:06;99895.85;;;9.22;65.51
58662;BME280;44432;49.786;22.760;2023-05-01T07:15:35;99899.34;;;9.32;65.13
58662;BME280;44432;49.786;22.760;2023-05-01T07:18:05;99898.42;;;9.42;64.55
58662;BME280;44432;49.786;22.760;2023-05-01T07:20:34;99899.55;;;9.50;63.72
58662;BME280;44432;49.786;22.760;2023-05-01T07:23:03;99901.69;;;9.58;63.54
58662;BME280;44432;49.786;22.760;2023-05-01T07:25:32;99899.89;;;9.67;62.88
58662;BME280;44432;49.786;22.760;2023-05-01T07:28:01;99896.86;;;9.74;62.14
58662;BME280;44432;49.786;22.760;2023-05-01T07:30:31;99895.58;;;9.81;62.26
58662;BME280;44432;49.786;22.760;2023-05-01T07:33:01;99897.16;;;9.94;62.41
58662;BME280;44432;49.786;22.760;2023-05-01T07:35:32;99891.03;;;10.05;62.04
58662;BME280;44432;49.786;22.760;2023-05-01T07:38:01;99893.19;;;10.14;61.72
58662;BME280;44432;49.786;22.760;2023-05-01T07:40:32;99889.63;;;10.25;61.26
58662;BME280;44432;49.786;22.760;2023-05-01T07:43:02;99883.83;;;10.33;61.05
58662;BME280;44432;49.786;22.760;2023-05-01T07:45:31;99884.61;;;10.40;60.83
58662;BME280;44432;49.786;22.760;2023-05-01T07:48:00;99878.70;;;10.48;60.82
58662;BME280;44432;49.786;22.760;2023-05-01T07:50:30;99884.27;;;10.58;60.33
58662;BME280;44432;49.786;22.760;2023-05-01T07:52:59;99885.99;;;10.65;59.86
58662;BME280;44432;49.786;22.760;2023-05-01T07:55:29;99881.11;;;10.71;59.76
58662;BME280;44432;49.786;22.760;2023-05-01T07:57:58;99877.92;;;10.79;59.69
58662;BME280;44432;49.786;22.760;2023-05-01T08:00:27;99879.73;;;10.90;59.24
58662;BME280;44432;49.786;22.760;2023-05-01T08:02:56;99879.09;;;11.08;58.30
58662;BME280;44432;49.786;22.760;2023-05-01T08:05:26;99876.75;;;11.20;57.45
58662;BME280;44432;49.786;22.760;2023-05-01T08:07:55;99877.69;;;11.28;56.79
58662;BME280;44432;49.786;22.760;2023-05-01T08:10:25;99878.62;;;11.41;56.01
58662;BME280;44432;49.786;22.760;2023-05-01T08:12:55;99877.14;;;11.52;55.59
58662;BME280;44432;49.786;22.760;2023-05-01T08:15:24;99879.66;;;11.65;55.08
58662;BME280;44432;49.786;22.760;2023-05-01T08:17:53;99876.02;;;11.72;54.77
58662;BME280;44432;49.786;22.760;2023-05-01T08:20:22;99875.72;;;11.76;54.57
58662;BME280;44432;49.786;22.760;2023-05-01T08:22:51;99876.86;;;11.85;54.30
58662;BME280;44432;49.786;22.760;2023-05-01T08:25:20;99874.04;;;11.94;53.82
58662;BME280;44432;49.786;22.760;2023-05-01T08:27:50;99873.29;;;12.03;53.21
58662;BME280;44432;49.786;22.760;2023-05-01T08:30:19;99871.03;;;12.09;52.54
58662;BME280;44432;49.786;22.760;2023-05-01T08:32:48;99863.08;;;12.16;52.21
58662;BME280;44432;49.786;22.760;2023-05-01T08:35:17;99857.02;;;12.23;51.46
58662;BME280;44432;49.786;22.760;2023-05-01T08:37:47;99859.48;;;12.30;51.63
58662;BME280;44432;49.786;22.760;2023-05-01T08:40:16;99865.48;;;12.37;51.09
58662;BME280;44432;49.786;22.760;2023-05-01T08:42:45;99860.23;;;12.38;50.57
58662;BME280;44432;49.786;22.760;2023-05-01T08:45:15;99860.67;;;12.40;50.69
58662;BME280;44432;49.786;22.760;2023-05-01T08:47:46;99854.13;;;12.45;50.40
58662;BME280;44432;49.786;22.760;2023-05-01T08:50:16;99852.86;;;12.50;50.31
58662;BME280;44432;49.786;22.760;2023-05-01T08:52:45;99850.08;;;12.60;49.99
58662;BME280;44432;49.786;22.760;2023-05-01T08:55:15;99845.80;;;12.69;49.41
58662;BME280;44432;49.786;22.760;2023-05-01T08:57:47;99850.02;;;12.74;49.08
58662;BME280;44432;49.786;22.760;2023-05-01T09:00:17;99850.46;;;12.80;49.23
58662;BME280;44432;49.786;22.760;2023-05-01T09:02:48;99848.33;;;12.91;48.92
58662;BME280;44432;49.786;22.760;2023-05-01T09:05:17;99847.17;;;12.99;48.21
58662;BME280;44432;49.786;22.760;2023-05-01T09:07:47;99846.15;;;13.04;48.30
58662;BME280;44432;49.786;22.760;2023-05-01T09:10:16;99844.46;;;13.08;48.36
58662;BME280;44432;49.786;22.760;2023-05-01T09:12:48;99843.80;;;13.09;47.83
58662;BME280;44432;49.786;22.760;2023-05-01T09:15:19;99843.34;;;13.11;48.09
58662;BME280;44432;49.786;22.760;2023-05-01T09:17:49;99842.55;;;13.17;48.07
58662;BME280;44432;49.786;22.760;2023-05-01T09:20:18;99841.77;;;13.22;48.08
58662;BME280;44432;49.786;22.760;2023-05-01T09:22:48;99839.58;;;13.28;47.80
58662;BME280;44432;49.786;22.760;2023-05-01T09:25:17;99839.59;;;13.36;47.57
58662;BME280;44432;49.786;22.760;2023-05-01T09:27:47;99833.81;;;13.43;47.40
58662;BME280;44432;49.786;22.760;2023-05-01T09:30:29;99835.05;;;13.53;47.54
58662;BME280;44432;49.786;22.760;2023-05-01T09:33:09;99835.80;;;13.64;46.91
58662;BME280;44432;49.786;22.760;2023-05-01T09:35:51;99838.27;;;13.71;46.60
58662;BME280;44432;49.786;22.760;2023-05-01T09:38:22;99835.56;;;13.71;45.86
58662;BME280;44432;49.786;22.760;2023-05-01T09:40:52;99839.05;;;13.69;45.93
58662;BME280;44432;49.786;22.760;2023-05-01T09:43:24;99834.02;;;13.71;45.84
58662;BME280;44432;49.786;22.760;2023-05-01T09:46:01;99834.70;;;13.74;45.97
58662;BME280;44432;49.786;22.760;2023-05-01T09:48:32;99839.08;;;13.81;45.51
58662;BME280;44432;49.786;22.760;2023-05-01T09:51:01;99836.48;;;13.86;45.12
58662;BME280;44432;49.786;22.760;2023-05-01T09:53:47;99830.92;;;13.90;44.80
58662;BME280;44432;49.786;22.760;2023-05-01T09:56:16;99832.92;;;13.91;44.50
58662;BME280;44432;49.786;22.760;2023-05-01T09:58:45;99830.77;;;13.94;44.69
58662;BME280;44432;49.786;22.760;2023-05-01T10:01:15;99834.44;;;13.98;44.43
58662;BME280;44432;49.786;22.760;2023-05-01T10:03:44;99833.09;;;14.02;44.16
58662;BME280;44432;49.786;22.760;2023-05-01T10:06:26;99824.13;;;14.08;43.88
58662;BME280;44432;49.786;22.760;2023-05-01T10:08:58;99823.58;;;14.13;43.55
58662;BME280;44432;49.786;22.760;2023-05-01T10:11:27;99820.93;;;14.19;43.02
58662;BME280;44432;49.786;22.760;2023-05-01T10:14:05;99814.47;;;14.23;42.79
58662;BME280;44432;49.786;22.760;2023-05-01T10:16:36;99810.02;;;14.32;43.48
58662;BME280;44432;49.786;22.760;2023-05-01T10:19:05;99809.36;;;14.45;42.92
58662;BME280;44432;49.786;22.760;2023-05-01T10:21:36;99809.19;;;14.52;42.17
58662;BME280;44432;49.786;22.760;2023-05-01T10:24:05;99810.19;;;14.50;41.71
58662;BME280;44432;49.786;22.760;2023-05-01T10:26:36;99808.04;;;14.53;42.29
58662;BME280;44432;49.786;22.760;2023-05-01T10:29:05;99802.14;;;14.58;42.44
58662;BME280;44432;49.786;22.760;2023-05-01T10:31:34;99799.97;;;14.69;42.71
58662;BME280;44432;49.786;22.760;2023-05-01T10:34:03;99799.08;;;14.78;42.57
58662;BME280;44432;49.786;22.760;2023-05-01T10:36:33;99797.83;;;14.84;42.27
58662;BME280;44432;49.786;22.760;2023-05-01T10:39:04;99805.88;;;14.88;41.64
58662;BME280;44432;49.786;22.760;2023-05-01T10:44:21;99805.80;;;14.87;41.00
58662;BME280;44432;49.786;22.760;2023-05-01T10:46:50;99801.54;;;14.82;40.40
58662;BME280;44432;49.786;22.760;2023-05-01T10:49:20;99792.23;;;14.72;40.45
58662;BME280;44432;49.786;22.760;2023-05-01T10:51:57;99794.86;;;14.66;40.76
58662;BME280;44432;49.786;22.760;2023-05-01T10:54:28;99793.38;;;14.63;40.70
58662;BME280;44432;49.786;22.760;2023-05-01T10:56:57;99790.46;;;14.65;41.21
58662;BME280;44432;49.786;22.760;2023-05-01T10:59:27;99789.87;;;14.72;41.03
58662;BME280;44432;49.786;22.760;2023-05-01T11:02:23;99788.73;;;14.82;40.80
58662;BME280;44432;49.786;22.760;2023-05-01T11:04:52;99783.46;;;14.93;40.82
58662;BME280;44432;49.786;22.760;2023-05-01T11:07:23;99784.89;;;15.03;40.82
58662;BME280;44432;49.786;22.760;2023-05-01T11:09:53;99783.13;;;15.12;40.51
58662;BME280;44432;49.786;22.760;2023-05-01T11:15:11;99783.21;;;15.09;39.75
58662;BME280;44432;49.786;22.760;2023-05-01T11:17:47;99779.05;;;15.05;39.92
58662;BME280;44432;49.786;22.760;2023-05-01T11:23:20;99777.96;;;15.18;40.24
58662;BME280;44432;49.786;22.760;2023-05-01T11:25:57;99773.70;;;15.22;40.12
58662;BME280;44432;49.786;22.760;2023-05-01T11:28:28;99772.52;;;15.27;40.25
58662;BME280;44432;49.786;22.760;2023-05-01T11:30:58;99768.48;;;15.28;39.86
58662;BME280;44432;49.786;22.760;2023-05-01T11:33:28;99766.61;;;15.26;39.83
58662;BME280;44432;49.786;22.760;2023-05-01T11:35:59;99758.44;;;15.29;40.14
58662;BME280;44432;49.786;22.760;2023-05-01T11:38:28;99757.91;;;15.39;40.27
58662;BME280;44432;49.786;22.760;2023-05-01T11:40:58;99756.42;;;15.51;40.16
58662;BME280;44432;49.786;22.760;2023-05-01T11:43:28;99750.95;;;15.60;39.99
58662;BME280;44432;49.786;22.760;2023-05-01T11:45:58;99745.85;;;15.69;39.89
58662;BME280;44432;49.786;22.760;2023-05-01T11:48:30;99748.42;;;15.80;40.03
58662;BME280;44432;49.786;22.760;2023-05-01T11:50:59;99743.70;;;15.91;40.04
58662;BME280;44432;49.786;22.760;2023-05-01T11:53:28;99739.08;;;16.00;39.90
58662;BME280;44432;49.786;22.760;2023-05-01T11:55:58;99742.09;;;16.10;39.73
58662;BME280;44432;49.786;22.760;2023-05-01T11:58:31;99743.61;;;16.11;39.14
58662;BME280;44432;49.786;22.760;2023-05-01T12:01:01;99731.89;;;16.05;38.64
58662;BME280;44432;49.786;22.760;2023-05-01T12:03:33;99728.84;;;16.02;38.99
58662;BME280;44432;49.786;22.760;2023-05-01T12:06:08;99731.09;;;16.02;38.78
58662;BME280;44432;49.786;22.760;2023-05-01T12:08:40;99728.66;;;16.01;38.29
58662;BME280;44432;49.786;22.760;2023-05-01T12:11:09;99722.26;;;15.97;38.32
58662;BME280;44432;49.786;22.760;2023-05-01T12:13:39;99720.28;;;16.00;38.32
58662;BME280;44432;49.786;22.760;2023-05-01T12:16:08;99717.05;;;16.06;38.51
58662;BME280;44432;49.786;22.760;2023-05-01T12:18:38;99711.77;;;16.15;38.68
58662;BME280;44432;49.786;22.760;2023-05-01T12:21:08;99708.70;;;16.24;38.60
58662;BME280;44432;49.786;22.760;2023-05-01T12:23:42;99709.41;;;16.31;38.11
58662;BME280;44432;49.786;22.760;2023-05-01T12:26:17;99706.80;;;16.31;37.63
58662;BME280;44432;49.786;22.760;2023-05-01T12:28:53;99709.19;;;16.30;37.51
58662;BME280;44432;49.786;22.760;2023-05-01T12:31:23;99706.50;;;16.29;37.50
58662;BME280;44432;49.786;22.760;2023-05-01T12:33:56;99699.89;;;16.26;37.26
58662;BME280;44432;49.786;22.760;2023-05-01T12:36:26;99697.95;;;16.21;37.15
58662;BME280;44432;49.786;22.760;2023-05-01T12:38:56;99700.44;;;16.18;37.39
58662;BME280;44432;49.786;22.760;2023-05-01T12:41:37;99696.96;;;16.17;37.30
58662;BME280;44432;49.786;22.760;2023-05-01T12:44:17;99692.40;;;16.18;37.62
58662;BME280;44432;49.786;22.760;2023-05-01T12:46:52;99691.58;;;16.23;37.99
58662;BME280;44432;49.786;22.760;2023-05-01T12:49:21;99689.87;;;16.32;37.92
58662;BME280;44432;49.786;22.760;2023-05-01T12:51:51;99687.22;;;16.39;37.39
58662;BME280;44432;49.786;22.760;2023-05-01T12:54:21;99679.08;;;16.43;37.19
58662;BME280;44432;49.786;22.760;2023-05-01T12:56:51;99679.08;;;16.45;37.25
58662;BME280;44432;49.786;22.760;2023-05-01T12:59:21;99682.66;;;16.53;37.12
58662;BME280;44432;49.786;22.760;2023-05-01T13:01:57;99675.20;;;16.56;36.99
58662;BME280;44432;49.786;22.760;2023-05-01T13:04:28;99673.97;;;16.58;36.75
58662;BME280;44432;49.786;22.760;2023-05-01T13:06:57;99673.89;;;16.57;36.54
58662;BME280;44432;49.786;22.760;2023-05-01T13:09:27;99665.77;;;16.56;36.33
58662;BME280;44432;49.786;22.760;2023-05-01T13:11:58;99657.46;;;16.54;35.99
58662;BME280;44432;49.786;22.760;2023-05-01T13:14:29;99668.14;;;16.55;36.31
58662;BME280;44432;49.786;22.760;2023-05-01T13:17:03;99667.17;;;16.58;36.37
58662;BME280;44432;49.786;22.760;2023-05-01T13:19:33;99664.42;;;16.63;36.76
58662;BME280;44432;49.786;22.760;2023-05-01T13:22:02;99663.04;;;16.69;36.64